createdAt,value
2023-05-04T00:02:52.191Z,99.90
2023-05-04T00:06:54.524Z,99.90
2023-05-04T00:10:56.937Z,99.90
2023-05-04T00:14:58.623Z,99.90
2023-05-04T00:19:00.402Z,99.90
2023-05-04T00:23:02.108Z,99.90
2023-05-04T00:27:03.932Z,99.90
2023-05-04T00:31:05.844Z,99.90
2023-05-04T00:35:08.212Z,99.90
2023-05-04T00:39:10.125Z,99.90
2023-05-04T00:43:11.985Z,99.90
2023-05-04T00:47:13.943Z,99.90
2023-05-04T00:51:19.143Z,99.90
2023-05-04T00:55:21.336Z,99.90
2023-05-04T00:59:22.953Z,99.90
2023-05-04T01:03:25.713Z,99.90
2023-05-04T01:07:42.904Z,99.90
2023-05-04T01:12:08.231Z,99.90
2023-05-04T01:16:09.963Z,99.90
2023-05-04T01:20:12.281Z,99.90
2023-05-04T01:24:13.958Z,99.90
2023-05-04T01:28:24.278Z,99.90
2023-05-04T01:32:29.398Z,99.90
2023-05-04T01:36:31.917Z,99.90
2023-05-04T01:40:33.670Z,99.90
2023-05-04T01:44:35.480Z,99.90
2023-05-04T01:48:37.148Z,99.90
2023-05-04T01:52:38.827Z,99.90
2023-05-04T01:56:41.277Z,99.90
2023-05-04T02:00:42.957Z,99.90
2023-05-04T02:04:44.646Z,99.90
2023-05-04T02:08:46.697Z,99.90
2023-05-04T02:12:48.398Z,99.90
2023-05-04T02:16:50.228Z,99.90
2023-05-04T02:20:51.986Z,99.90
2023-05-04T02:24:53.651Z,99.90
2023-05-04T02:28:55.325Z,99.90
2023-05-04T02:32:57.142Z,99.90
2023-05-04T02:36:58.863Z,99.90
2023-05-04T02:41:00.577Z,99.90
2023-05-04T02:45:02.218Z,99.90
2023-05-04T02:49:04.010Z,99.90
2023-05-04T02:53:05.857Z,99.90
2023-05-04T02:57:07.546Z,99.90
2023-05-04T03:01:09.201Z,99.90
2023-05-04T03:05:10.990Z,99.90
2023-05-04T03:09:12.718Z,99.90
2023-05-04T03:13:14.400Z,99.90
2023-05-04T03:17:16.232Z,99.90
2023-05-04T03:21:18.021Z,99.90
2023-05-04T03:25:19.827Z,99.90
2023-05-04T03:29:21.505Z,99.90
2023-05-04T03:33:23.164Z,99.90
2023-05-04T03:37:24.881Z,99.90
2023-05-04T03:41:26.555Z,99.90
2023-05-04T03:45:28.817Z,99.90
2023-05-04T03:49:30.538Z,99.90
2023-05-04T03:53:34.580Z,99.90
2023-05-04T03:57:36.663Z,99.90
2023-05-04T04:01:38.312Z,99.90
2023-05-04T04:05:39.992Z,99.90
2023-05-04T04:09:41.624Z,99.90
2023-05-04T04:13:43.370Z,99.90
2023-05-04T04:17:45.026Z,99.90
2023-05-04T04:21:46.795Z,99.90
2023-05-04T04:25:48.582Z,99.90
2023-05-04T04:29:56.231Z,99.90
2023-05-04T04:33:58.088Z,99.90
2023-05-04T04:38:02.273Z,99.90
2023-05-04T04:42:05.185Z,99.90
2023-05-04T04:46:06.975Z,99.90
2023-05-04T04:50:09.500Z,99.90
2023-05-04T04:54:11.506Z,99.90
2023-05-04T04:58:13.409Z,99.90
2023-05-04T05:02:15.173Z,99.90
2023-05-04T05:06:16.929Z,99.90
2023-05-04T05:10:19.157Z,99.90
2023-05-04T05:14:20.780Z,99.90
2023-05-04T05:18:22.619Z,99.90
2023-05-04T05:22:24.249Z,99.90
2023-05-04T05:26:25.909Z,99.90
2023-05-04T05:30:28.614Z,99.90
2023-05-04T05:34:30.564Z,99.90
2023-05-04T05:38:32.487Z,99.90
2023-05-04T05:42:34.211Z,99.90
2023-05-04T05:46:35.985Z,99.90
2023-05-04T05:50:37.827Z,99.90
2023-05-04T05:54:39.481Z,99.90
2023-05-04T05:58:41.652Z,99.90
2023-05-04T06:02:43.405Z,99.90
2023-05-04T06:06:46.157Z,99.90
2023-05-04T06:10:48.541Z,99.90
2023-05-04T06:14:50.241Z,99.90
2023-05-04T06:18:52.027Z,99.90
2023-05-04T06:22:53.795Z,99.90
2023-05-04T06:26:56.427Z,99.90
2023-05-04T06:30:58.151Z,99.90
2023-05-04T06:34:59.835Z,99.90
2023-05-04T06:39:01.551Z,99.90
2023-05-04T06:43:03.322Z,99.90
2023-05-04T06:47:05.307Z,99.90
2023-05-04T06:51:07.080Z,99.90
2023-05-04T06:55:08.992Z,99.90
2023-05-04T06:59:10.807Z,99.90
2023-05-04T07:03:12.705Z,99.90
2023-05-04T07:07:14.359Z,99.90
2023-05-04T07:11:16.174Z,99.90
2023-05-04T07:15:17.866Z,99.90
2023-05-04T07:19:19.532Z,99.90
2023-05-04T07:23:21.293Z,99.90
2023-05-04T07:27:23.055Z,99.90
2023-05-04T07:31:24.710Z,99.90
2023-05-04T07:35:27.063Z,99.90
2023-05-04T07:39:28.822Z,99.90
2023-05-04T07:43:30.462Z,99.90
2023-05-04T07:47:32.186Z,99.90
2023-05-04T07:51:33.893Z,99.90
2023-05-04T07:55:35.722Z,99.90
2023-05-04T07:59:37.355Z,99.90
2023-05-04T08:03:39.231Z,99.90
2023-05-04T08:07:41.362Z,99.90
2023-05-04T08:11:43.447Z,99.90
2023-05-04T08:15:45.506Z,99.90
2023-05-04T08:19:47.246Z,99.90
2023-05-04T08:23:49.650Z,99.10
2023-05-04T08:27:51.408Z,97.60
2023-05-04T08:31:56.149Z,96.90
2023-05-04T08:35:58.336Z,95.00
2023-05-04T08:39:59.983Z,95.30
2023-05-04T08:44:01.674Z,93.80
2023-05-04T08:48:03.934Z,94.00
2023-05-04T08:52:08.598Z,93.40
2023-05-04T08:56:13.257Z,93.10
2023-05-04T09:00:17.887Z,92.00
2023-05-04T09:04:20.694Z,90.90
2023-05-04T09:08:22.905Z,91.90
2023-05-04T09:12:26.938Z,90.00
2023-05-04T09:16:36.381Z,89.90
2023-05-04T09:20:48.585Z,88.20
2023-05-04T09:24:50.340Z,90.30
2023-05-04T09:28:51.985Z,85.70
2023-05-04T09:32:53.780Z,85.60
2023-05-04T09:37:00.583Z,85.10
2023-05-04T09:41:02.379Z,86.00
2023-05-04T09:45:06.386Z,87.00
2023-05-04T09:49:08.834Z,81.90
2023-05-04T09:53:10.752Z,86.70
2023-05-04T09:57:14.133Z,80.50
2023-05-04T10:01:16.519Z,85.70
2023-05-04T10:05:21.367Z,81.90
2023-05-04T10:09:24.256Z,80.10
2023-05-04T10:13:26.288Z,82.10
2023-05-04T10:17:58.635Z,76.30
2023-05-04T10:22:13.539Z,78.70
2023-05-04T10:26:41.169Z,75.00
2023-05-04T10:30:43.196Z,72.50
2023-05-04T10:34:45.324Z,75.60
2023-05-04T10:38:47.161Z,72.60
2023-05-04T10:42:48.911Z,77.40
2023-05-04T10:47:07.922Z,75.50
2023-05-04T10:51:21.199Z,72.70
2023-05-04T10:55:23.660Z,72.50
2023-05-04T10:59:25.358Z,72.90
2023-05-04T11:03:37.955Z,72.80
2023-05-04T11:07:40.375Z,72.40
2023-05-04T11:11:41.993Z,71.40
2023-05-04T11:15:51.959Z,70.00
2023-05-04T11:19:53.586Z,71.20
2023-05-04T11:24:00.277Z,68.40
2023-05-04T11:28:02.104Z,68.30
2023-05-04T11:32:03.876Z,70.50
2023-05-04T11:36:05.958Z,68.70
2023-05-04T11:40:14.774Z,68.70
2023-05-04T11:44:17.890Z,72.70
2023-05-04T11:48:19.826Z,70.40
2023-05-04T11:52:25.755Z,69.90
2023-05-04T11:56:27.680Z,69.70
2023-05-04T12:00:49.607Z,68.80
2023-05-04T12:04:51.678Z,68.60
2023-05-04T12:09:08.231Z,68.70
2023-05-04T12:13:17.395Z,67.60
2023-05-04T12:17:24.138Z,65.00
2023-05-04T12:21:25.850Z,65.10
2023-05-04T12:25:27.534Z,64.00
2023-05-04T12:29:29.191Z,64.80
2023-05-04T12:33:34.738Z,62.10
2023-05-04T12:37:38.087Z,62.20
2023-05-04T12:41:40.097Z,61.30
2023-05-04T12:45:41.865Z,59.20
2023-05-04T12:49:43.929Z,59.80
2023-05-04T12:53:45.732Z,58.20
2023-05-04T12:57:47.544Z,56.90
2023-05-04T13:01:49.366Z,58.00
2023-05-04T13:05:51.402Z,57.20
2023-05-04T13:09:53.163Z,54.70
2023-05-04T13:13:55.977Z,57.00
2023-05-04T13:17:58.054Z,57.20
2023-05-04T13:22:00.038Z,58.40
2023-05-04T13:26:01.943Z,55.90
2023-05-04T13:30:04.829Z,54.70
2023-05-04T13:34:07.530Z,55.70
2023-05-04T13:38:09.207Z,55.20
2023-05-04T13:42:14.489Z,55.00
2023-05-04T13:46:16.540Z,54.80
2023-05-04T13:50:18.844Z,54.00
2023-05-04T13:54:20.470Z,52.60
2023-05-04T13:58:22.458Z,53.80
2023-05-04T14:02:24.353Z,53.70
2023-05-04T14:06:26.226Z,53.20
2023-05-04T14:10:28.358Z,53.70
2023-05-04T14:14:30.018Z,51.30
2023-05-04T14:18:32.825Z,52.50
2023-05-04T14:22:36.495Z,53.80
2023-05-04T14:26:39.776Z,53.10
2023-05-04T14:30:41.393Z,53.60
2023-05-04T14:34:43.188Z,52.10
2023-05-04T14:38:45.510Z,50.40
2023-05-04T14:42:47.134Z,50.00
2023-05-04T14:46:49.130Z,52.00
2023-05-04T14:50:50.787Z,52.70
2023-05-04T14:54:52.648Z,50.50
2023-05-04T14:58:57.131Z,52.70
2023-05-04T15:02:59.100Z,53.60
2023-05-04T15:07:04.348Z,51.90
2023-05-04T15:11:06.129Z,54.80
2023-05-04T15:15:08.380Z,53.80
2023-05-04T15:19:09.962Z,53.90
2023-05-04T15:23:14.278Z,54.20
2023-05-04T15:27:16.228Z,54.10
2023-05-04T15:31:18.840Z,55.10
2023-05-04T15:35:23.288Z,55.30
2023-05-04T15:39:26.441Z,54.00
2023-05-04T15:43:28.241Z,54.70
2023-05-04T15:47:30.479Z,52.80
2023-05-04T15:51:32.240Z,53.20
2023-05-04T15:55:34.108Z,55.20
2023-05-04T15:59:35.895Z,55.70
2023-05-04T16:03:37.893Z,55.50
2023-05-04T16:07:39.643Z,56.00
2023-05-04T16:11:41.476Z,56.10
2023-05-04T16:15:43.199Z,56.30
2023-05-04T16:19:44.892Z,55.10
2023-05-04T16:23:46.582Z,55.50
2023-05-04T16:27:48.329Z,56.50
2023-05-04T16:31:52.930Z,55.70
2023-05-04T16:35:58.109Z,55.80
2023-05-04T16:40:15.267Z,56.30
2023-05-04T16:44:17.137Z,58.30
2023-05-04T16:48:18.900Z,58.60
2023-05-04T16:52:21.073Z,59.30
2023-05-04T16:56:22.993Z,59.40
2023-05-04T17:00:25.023Z,59.90
2023-05-04T17:04:28.955Z,61.60
2023-05-04T17:08:30.617Z,61.50
2023-05-04T17:12:32.658Z,61.90
2023-05-04T17:16:34.334Z,62.80
2023-05-04T17:20:36.349Z,63.10
2023-05-04T17:24:38.099Z,63.50
2023-05-04T17:28:39.811Z,63.70
2023-05-04T17:32:41.573Z,62.60
2023-05-04T17:36:43.231Z,63.40
2023-05-04T17:40:44.956Z,64.60
2023-05-04T17:44:46.681Z,65.80
2023-05-04T17:48:48.320Z,64.20
2023-05-04T17:52:57.713Z,64.10
2023-05-04T17:56:59.486Z,65.20
2023-05-04T18:01:01.110Z,63.70
2023-05-04T18:05:02.906Z,64.40
2023-05-04T18:09:04.907Z,64.50
2023-05-04T18:13:06.681Z,64.80
2023-05-04T18:17:08.361Z,65.50
2023-05-04T18:21:10.094Z,65.70
2023-05-04T18:25:11.936Z,65.60
2023-05-04T18:33:19.272Z,67.10
2023-05-04T18:37:21.543Z,67.30
2023-05-04T18:41:27.840Z,68.60
2023-05-04T18:45:29.519Z,69.10
2023-05-04T18:49:31.372Z,69.60
2023-05-04T18:53:33.248Z,70.50
2023-05-04T18:57:34.911Z,71.30
2023-05-04T19:01:37.661Z,71.70
2023-05-04T19:05:39.558Z,72.10
2023-05-04T19:09:41.508Z,72.60
2023-05-04T19:13:43.535Z,73.00
2023-05-04T19:17:45.302Z,73.50
2023-05-04T19:21:47.460Z,73.90
2023-05-04T19:25:49.083Z,74.60
2023-05-04T19:29:50.870Z,74.80
2023-05-04T19:33:53.069Z,74.70
2023-05-04T19:37:54.977Z,75.40
2023-05-04T19:41:56.674Z,76.20
2023-05-04T19:45:58.513Z,77.40
2023-05-04T19:50:00.260Z,79.50
2023-05-04T19:54:01.974Z,81.00
2023-05-04T19:58:03.871Z,82.80
2023-05-04T20:02:06.224Z,83.70
2023-05-04T20:06:08.011Z,84.00
2023-05-04T20:10:09.884Z,84.80
2023-05-04T20:14:11.855Z,85.10
2023-05-04T20:18:13.528Z,85.30
2023-05-04T20:22:15.971Z,85.80
2023-05-04T20:26:17.797Z,87.10
2023-05-04T20:30:19.653Z,88.50
2023-05-04T20:34:21.388Z,88.60
2023-05-04T20:38:23.068Z,89.40
2023-05-04T20:42:24.912Z,89.70
2023-05-04T20:46:26.714Z,89.60
2023-05-04T20:50:28.455Z,89.70
2023-05-04T20:54:30.276Z,90.00
2023-05-04T20:58:32.294Z,90.20
2023-05-04T21:02:34.138Z,90.40
2023-05-04T21:06:35.928Z,90.10
2023-05-04T21:10:37.905Z,90.20
2023-05-04T21:14:39.589Z,90.20
2023-05-04T21:18:41.279Z,90.30
2023-05-04T21:22:42.945Z,89.40
2023-05-04T21:26:45.946Z,89.10
2023-05-04T21:30:48.245Z,89.20
2023-05-04T21:34:53.078Z,88.00
2023-05-04T21:38:55.347Z,88.00
2023-05-04T21:42:58.508Z,87.40
2023-05-04T21:47:01.957Z,87.10
2023-05-04T21:51:03.929Z,87.50
2023-05-04T21:55:06.161Z,88.30
2023-05-04T21:59:07.871Z,89.40
2023-05-04T22:03:09.621Z,90.20
2023-05-04T22:07:11.457Z,90.70
2023-05-04T22:11:13.200Z,91.20
2023-05-04T22:15:15.017Z,91.90
2023-05-04T22:19:16.713Z,92.40
2023-05-04T22:23:18.371Z,92.60
2023-05-04T22:27:20.026Z,92.50
2023-05-04T22:31:21.801Z,92.20
2023-05-04T22:35:23.793Z,92.20
2023-05-04T22:39:25.494Z,93.20
2023-05-04T22:43:27.140Z,93.50
2023-05-04T22:47:28.791Z,93.50
2023-05-04T22:51:30.459Z,93.90
2023-05-04T22:55:32.586Z,94.30
2023-05-04T22:59:34.280Z,94.00
2023-05-04T23:30:28.333Z,94.90
2023-05-04T23:34:30.018Z,95.30
2023-05-04T23:38:31.773Z,96.00
2023-05-04T23:42:33.371Z,96.00
2023-05-04T23:46:35.052Z,97.00
2023-05-04T23:50:37.016Z,97.30
2023-05-04T23:54:38.594Z,98.10
2023-05-04T23:58:41.589Z,99.90
